Garlock, California
Current Conditions -  °F | °C
As of 11:56 PM on Wednesday 28 Jan 2015 (Local Time) from KNID Reporting Station
Few Clouds Few Clouds  
Wind Chill: 52°   Ceiling: Unl
Heat Index: 52°   Visibility: 10mi
Dew Point: 48°   Wind: 3mph
Humidity: 86%   Direction: 240°WSW
Pressure: 30.18"   Gusts: NA
Location:  35.4114°N, 117.737°W
Report Text: KNID 290756Z AUTO 24003KT 10SM FEW120 11/09 A3018 RMK AO2 SLP218 T01110089 401670056 $
Loading
Personal Weather Stations






























Interactive Weather Map New forecast layout! Learn more

10-Day Weather Forecast

Advertisements
Track Severe Weather on mobile